Time;durP1;ratioP1;P1;durP2;ratioP2;P2;SDS_P1;SDS_P2;PMS_P1;PMS_P2;Temp;Humidity;BMP_temperature;BMP_pressure;BME280_temperature;BME280_humidity;BME280_pressure;Samples;Min_cycle;Max_cycle;Signal;HPM_P1;HPM_P2
2023/09/12 00:01:34;;;;;;;;;6.33;5.67;;;;;22.46;69.91;100164.41;5084005;27;45461;-75
2023/09/12 00:03:59;;;;;;;;;8.00;5.67;;;;;22.38;70.70;100173.47;5056520;28;45655;-75
2023/09/12 00:06:25;;;;;;;;;5.67;5.67;;;;;22.45;70.42;100174.19;5076631;27;45492;-74
2023/09/12 00:08:52;;;;;;;;;8.00;7.00;;;;;22.54;69.73;100171.31;5064932;27;45526;-74
2023/09/12 00:11:18;;;;;;;;;6.00;5.33;;;;;22.55;70.54;100158.88;5080882;27;46554;-76
2023/09/12 00:13:44;;;;;;;;;6.67;6.67;;;;;22.60;70.59;100163.16;5045250;28;45676;-75
2023/09/12 00:16:10;;;;;;;;;5.33;4.67;;;;;22.67;70.25;100157.69;5082961;27;46258;-75
2023/09/12 00:18:37;;;;;;;;;5.67;5.00;;;;;22.71;70.42;100159.34;5066487;27;46230;-74
2023/09/12 00:21:02;;;;;;;;;5.00;5.00;;;;;22.61;71.11;100154.25;5085469;27;46143;-75
2023/09/12 00:23:29;;;;;;;;;4.33;4.00;;;;;22.61;70.62;100158.72;5075986;27;45518;-75
2023/09/12 00:25:54;;;;;;;;;5.67;5.00;;;;;22.59;70.67;100140.09;5068256;27;46069;-75
2023/09/12 00:28:21;;;;;;;;;5.67;5.00;;;;;22.60;70.85;100146.28;5068650;27;45464;-74
2023/09/12 00:30:46;;;;;;;;;7.67;6.00;;;;;22.62;70.63;100156.00;5064340;27;45680;-74
2023/09/12 00:33:12;;;;;;;;;5.00;4.33;;;;;22.63;70.50;100151.56;5076146;27;45436;-74
2023/09/12 00:39:00;;;;;;;;;6.00;6.00;;;;;22.73;70.52;100146.88;5072018;27;45316;-74
2023/09/12 00:41:25;;;;;;;;;6.00;6.00;;;;;22.74;70.61;100141.50;5083512;27;45389;-75
2023/09/12 00:43:51;;;;;;;;;7.00;5.33;;;;;22.78;70.13;100145.84;5088861;27;45468;-74
2023/09/12 00:46:21;;;;;;;;;4.33;4.00;;;;;22.69;70.39;100135.41;5083324;27;46139;-77
2023/09/12 00:48:49;;;;;;;;;8.33;7.00;;;;;22.71;70.69;100149.56;5079276;27;45405;-74
2023/09/12 00:51:16;;;;;;;;;4.00;4.00;;;;;22.64;70.46;100132.88;5074277;27;45487;-75
2023/09/12 00:53:43;;;;;;;;;7.00;7.00;;;;;22.69;70.29;100145.19;5077406;27;45471;-75
2023/09/12 00:56:09;;;;;;;;;3.67;3.67;;;;;22.67;70.38;100131.91;5081715;27;45621;-76
2023/09/12 00:58:35;;;;;;;;;6.00;6.00;;;;;22.72;69.94;100139.78;5047497;27;45481;-75
2023/09/12 01:01:02;;;;;;;;;6.33;5.00;;;;;22.73;70.03;100139.75;5069273;27;45780;-76
2023/09/12 01:03:27;;;;;;;;;5.00;5.00;;;;;22.78;70.09;100137.84;5051778;28;45706;-75
2023/09/12 01:05:53;;;;;;;;;6.00;5.00;;;;;22.83;69.71;100143.03;5083969;27;45501;-76
2023/09/12 01:08:19;;;;;;;;;6.00;5.33;;;;;22.81;69.72;100131.56;5067698;27;45604;-75
2023/09/12 01:10:47;;;;;;;;;7.00;6.00;;;;;22.79;69.48;100120.06;5085020;27;45481;-76
2023/09/12 01:13:14;;;;;;;;;5.33;4.00;;;;;22.83;69.78;100117.28;5080124;27;45555;-75
2023/09/12 01:15:41;;;;;;;;;6.33;5.67;;;;;22.89;68.99;100120.69;5084958;27;45788;-75
2023/09/12 01:18:07;;;;;;;;;7.00;7.00;;;;;22.82;69.90;100115.53;5060520;27;45671;-75
2023/09/12 01:20:35;;;;;;;;;5.67;5.67;;;;;22.71;69.65;100095.44;5062993;27;45339;-75
2023/09/12 01:23:29;;;;;;;;;6.00;6.00;;;;;22.65;70.34;100099.13;5057996;28;45391;-76
2023/09/12 01:26:11;;;;;;;;;8.33;6.00;;;;;22.69;70.08;100102.59;5075385;28;45463;-78
2023/09/12 01:28:42;;;;;;;;;6.00;5.00;;;;;22.63;70.06;100098.31;5080568;28;45720;-76
2023/09/12 01:31:09;;;;;;;;;7.67;7.67;;;;;22.55;69.94;100087.00;5052663;28;45456;-74
2023/09/12 01:33:35;;;;;;;;;6.00;6.00;;;;;22.55;70.69;100103.84;5078490;28;45478;-75
2023/09/12 01:36:01;;;;;;;;;6.00;6.00;;;;;22.56;70.79;100099.38;5060680;28;47597;-75
2023/09/12 01:38:27;;;;;;;;;6.00;6.00;;;;;22.55;70.55;100101.16;5053838;28;45419;-75
2023/09/12 01:40:54;;;;;;;;;5.00;5.00;;;;;22.57;70.42;100111.78;5057272;28;45398;-74
2023/09/12 01:43:23;;;;;;;;;6.00;6.00;;;;;22.69;70.24;100122.09;5057463;28;45489;-74
2023/09/12 01:45:53;;;;;;;;;6.00;6.00;;;;;22.62;70.02;100112.53;5072306;28;45496;-76
2023/09/12 01:48:23;;;;;;;;;5.33;5.33;;;;;22.75;70.32;100131.72;5056101;28;45372;-74
2023/09/12 01:50:49;;;;;;;;;4.33;4.33;;;;;22.74;69.97;100140.59;5057423;28;45422;-75
2023/09/12 01:53:16;;;;;;;;;6.67;6.00;;;;;22.76;69.82;100137.00;5072554;28;45552;-75
2023/09/12 01:55:45;;;;;;;;;5.33;5.33;;;;;22.84;69.83;100139.47;5062461;28;46166;-78
2023/09/12 01:58:12;;;;;;;;;6.00;5.33;;;;;22.86;69.92;100148.28;5066403;28;45285;-75
2023/09/12 02:00:40;;;;;;;;;6.33;6.00;;;;;22.75;70.02;100151.22;5071479;28;45426;-75
2023/09/12 02:03:05;;;;;;;;;5.00;5.00;;;;;22.64;70.05;100148.84;5042287;28;45440;-75
2023/09/12 02:05:31;;;;;;;;;5.00;5.00;;;;;22.62;70.34;100144.47;5070136;28;45556;-75
2023/09/12 02:08:00;;;;;;;;;4.00;4.00;;;;;22.64;70.29;100156.84;5067343;28;45454;-74
2023/09/12 02:10:25;;;;;;;;;5.67;5.00;;;;;22.68;70.51;100160.31;5062771;28;45388;-74
2023/09/12 02:12:51;;;;;;;;;5.33;4.00;;;;;22.69;70.30;100159.38;5074430;28;45476;-75
2023/09/12 02:15:17;;;;;;;;;5.00;4.67;;;;;22.73;70.50;100154.84;5070980;28;45169;-74
2023/09/12 02:17:42;;;;;;;;;7.00;6.00;;;;;22.73;70.80;100144.19;5057660;28;45515;-74
2023/09/12 02:20:09;;;;;;;;;6.00;6.00;;;;;22.77;70.03;100152.06;5057142;28;45549;-74
2023/09/12 02:22:35;;;;;;;;;6.00;6.00;;;;;22.86;70.00;100152.72;5056139;28;45612;-78
2023/09/12 02:25:02;;;;;;;;;6.33;6.00;;;;;22.82;69.65;100157.28;5056839;28;46157;-75
2023/09/12 02:27:28;;;;;;;;;6.00;5.00;;;;;22.84;69.83;100155.44;5066393;28;45374;-74
2023/09/12 02:29:55;;;;;;;;;6.33;6.00;;;;;22.79;70.09;100154.69;5063107;28;45518;-74
2023/09/12 02:32:20;;;;;;;;;8.00;6.00;;;;;22.77;70.61;100159.19;5057187;28;45408;-74
2023/09/12 02:34:46;;;;;;;;;4.67;4.33;;;;;22.85;69.84;100154.53;5061551;28;45445;-74
2023/09/12 02:37:12;;;;;;;;;8.00;7.00;;;;;22.84;70.14;100139.47;5066585;28;45566;-74
2023/09/12 02:39:37;;;;;;;;;5.33;5.33;;;;;22.84;69.96;100145.66;5057065;28;45455;-74
2023/09/12 02:42:03;;;;;;;;;5.33;5.00;;;;;22.99;70.22;100151.47;5056778;28;45425;-74
2023/09/12 02:44:29;;;;;;;;;5.00;4.67;;;;;22.98;69.51;100142.63;5061704;28;45961;-74
2023/09/12 02:46:54;;;;;;;;;6.00;5.00;;;;;22.97;69.80;100124.88;5067106;28;45541;-74
2023/09/12 02:49:20;;;;;;;;;6.33;5.67;;;;;23.00;69.45;100124.81;5056724;28;45637;-74
2023/09/12 02:51:46;;;;;;;;;5.33;5.00;;;;;22.99;69.72;100114.19;5071890;28;45601;-74
2023/09/12 02:54:11;;;;;;;;;7.00;6.67;;;;;23.05;70.30;100127.38;5056462;28;45414;-75
2023/09/12 02:56:37;;;;;;;;;6.67;6.00;;;;;22.95;70.40;100107.22;5056418;28;45489;-74
2023/09/12 02:59:03;;;;;;;;;5.00;5.00;;;;;23.00;69.80;100118.63;5068504;28;45332;-74
2023/09/12 03:01:29;;;;;;;;;5.00;5.00;;;;;22.99;69.73;100107.06;5060145;28;45444;-74
2023/09/12 03:03:55;;;;;;;;;5.33;5.00;;;;;22.98;69.67;100104.47;5059875;28;46224;-74
2023/09/12 03:06:20;;;;;;;;;5.33;5.33;;;;;22.94;69.98;100097.44;5075512;28;45528;-74
2023/09/12 03:08:48;;;;;;;;;7.00;6.00;;;;;22.96;69.57;100116.94;5057664;28;45480;-74
2023/09/12 03:11:14;;;;;;;;;5.33;5.33;;;;;22.89;69.93;100099.38;5054909;28;45477;-74
2023/09/12 03:13:41;;;;;;;;;6.00;6.00;;;;;22.82;70.16;100098.69;5038194;28;45579;-75
2023/09/12 03:16:11;;;;;;;;;5.00;4.00;;;;;22.68;70.70;100107.06;5045598;28;45806;-75
2023/09/12 03:18:36;;;;;;;;;6.67;6.00;;;;;22.60;71.10;100106.38;5056017;28;45365;-74
2023/09/12 03:21:02;;;;;;;;;5.00;4.67;;;;;22.46;71.06;100089.88;5054052;28;45524;-74
2023/09/12 03:23:28;;;;;;;;;6.00;5.67;;;;;22.48;70.42;100090.72;5071531;28;45467;-74
2023/09/12 03:25:54;;;;;;;;;6.67;5.00;;;;;22.49;70.25;100081.84;5064274;28;45504;-74
2023/09/12 03:28:19;;;;;;;;;6.33;6.00;;;;;22.42;70.31;100066.03;5063663;28;45408;-74
2023/09/12 03:30:45;;;;;;;;;6.67;6.67;;;;;22.39;70.61;100079.41;5071798;28;45409;-74
2023/09/12 03:33:10;;;;;;;;;4.00;3.67;;;;;22.41;70.26;100088.22;5055869;28;45426;-74
2023/09/12 03:35:36;;;;;;;;;7.33;7.00;;;;;22.30;70.91;100087.63;5057518;28;45555;-75
2023/09/12 03:38:02;;;;;;;;;7.00;6.67;;;;;22.25;71.42;100102.84;5071413;28;45394;-74
2023/09/12 03:40:32;;;;;;;;;7.00;6.67;;;;;22.18;71.63;100102.09;5063806;28;45569;-74
2023/09/12 03:42:58;;;;;;;;;4.00;4.00;;;;;22.09;71.40;100094.34;5062672;28;45513;-74
2023/09/12 03:45:24;;;;;;;;;5.00;5.00;;;;;22.09;71.27;100109.44;5078716;28;45733;-74
2023/09/12 03:47:51;;;;;;;;;7.00;6.00;;;;;22.04;71.29;100105.09;5065298;28;45577;-74
2023/09/12 03:50:16;;;;;;;;;5.00;5.00;;;;;22.12;71.17;100107.53;5074820;28;45619;-74
2023/09/12 03:52:42;;;;;;;;;5.33;5.33;;;;;22.21;70.98;100117.09;5062933;28;45543;-74
2023/09/12 03:55:08;;;;;;;;;5.00;5.00;;;;;22.33;71.10;100129.25;5061205;28;45458;-74
2023/09/12 03:57:34;;;;;;;;;5.33;5.33;;;;;22.31;70.76;100123.97;5079563;28;45390;-74
2023/09/12 03:59:59;;;;;;;;;5.67;5.00;;;;;22.35;71.21;100132.75;5044142;28;45667;-74
2023/09/12 04:02:25;;;;;;;;;5.00;5.00;;;;;22.26;70.71;100132.97;5062866;28;45439;-75
2023/09/12 04:04:51;;;;;;;;;7.00;6.67;;;;;22.28;70.94;100139.13;5057582;28;45371;-74
2023/09/12 04:07:18;;;;;;;;;6.00;5.33;;;;;22.19;71.51;100141.06;5059350;28;45389;-74
2023/09/12 04:09:43;;;;;;;;;8.00;7.33;;;;;22.13;71.41;100143.03;5058936;28;45479;-75
2023/09/12 04:12:09;;;;;;;;;6.00;5.33;;;;;22.12;71.23;100152.75;5059045;28;45920;-74
2023/09/12 04:14:35;;;;;;;;;5.33;5.33;;;;;22.18;71.28;100162.41;5045238;28;45533;-74
2023/09/12 04:17:01;;;;;;;;;6.00;6.00;;;;;22.20;71.17;100147.28;5059282;28;46008;-75
2023/09/12 04:19:27;;;;;;;;;7.33;6.33;;;;;22.27;71.28;100154.22;5056830;28;45311;-74
2023/09/12 04:21:53;;;;;;;;;9.00;6.67;;;;;22.29;71.00;100147.09;5078101;28;45506;-74
2023/09/12 04:24:18;;;;;;;;;7.00;6.67;;;;;22.37;70.83;100153.09;5052568;28;45370;-74
2023/09/12 04:26:44;;;;;;;;;6.00;5.67;;;;;22.40;70.54;100149.47;5058892;28;45451;-74
2023/09/12 04:29:10;;;;;;;;;6.00;5.67;;;;;22.30;69.80;100132.84;5059032;28;45327;-74
2023/09/12 04:31:36;;;;;;;;;7.00;6.00;;;;;22.33;69.80;100143.44;5061250;28;45442;-74
2023/09/12 04:34:01;;;;;;;;;6.67;6.67;;;;;22.33;70.33;100147.91;5060363;28;45338;-75
2023/09/12 04:36:27;;;;;;;;;9.00;7.67;;;;;22.24;69.89;100136.56;5077838;28;45367;-74
2023/09/12 04:38:53;;;;;;;;;4.00;3.67;;;;;22.37;69.95;100149.56;5068123;28;45382;-75
2023/09/12 04:41:18;;;;;;;;;7.00;6.00;;;;;22.28;70.32;100142.66;5058416;28;45421;-74
2023/09/12 04:43:44;;;;;;;;;8.33;6.67;;;;;22.32;70.73;100160.34;5058756;28;45411;-74
2023/09/12 04:46:11;;;;;;;;;10.67;8.33;;;;;22.24;70.23;100148.97;5063019;28;45410;-75
2023/09/12 04:48:37;;;;;;;;;7.33;6.00;;;;;22.27;70.57;100153.38;5058365;28;45738;-74
2023/09/12 04:51:03;;;;;;;;;7.00;7.00;;;;;22.26;70.47;100144.47;5058211;28;46038;-74
2023/09/12 04:53:34;;;;;;;;;5.67;5.67;;;;;22.26;70.63;100148.94;5058235;28;45849;-74
2023/09/12 04:56:01;;;;;;;;;6.67;6.67;;;;;22.21;70.20;100136.59;5064985;28;45416;-74
2023/09/12 04:58:26;;;;;;;;;7.00;6.67;;;;;22.22;70.19;100141.03;5077865;27;45419;-74
2023/09/12 05:00:52;;;;;;;;;7.67;7.00;;;;;22.22;70.17;100145.44;5068377;28;46373;-74
2023/09/12 05:03:17;;;;;;;;;6.00;5.67;;;;;22.19;70.48;100141.06;5068219;28;45426;-74
2023/09/12 05:05:46;;;;;;;;;9.67;6.67;;;;;22.21;70.43;100133.94;5067296;28;45448;-74
2023/09/12 05:08:12;;;;;;;;;5.00;5.00;;;;;22.10;70.28;100119.16;5041792;28;45339;-74
2023/09/12 05:10:38;;;;;;;;;7.00;7.00;;;;;22.16;70.04;100134.94;5054370;28;46647;-74
2023/09/12 05:13:05;;;;;;;;;8.67;7.00;;;;;22.10;70.08;100121.81;5045965;28;45572;-75
2023/09/12 05:15:30;;;;;;;;;7.00;6.67;;;;;22.15;70.52;100138.53;5060298;28;45516;-74
2023/09/12 05:17:56;;;;;;;;;7.00;7.00;;;;;22.16;70.36;100142.94;5072560;28;45370;-75
2023/09/12 05:20:21;;;;;;;;;5.33;5.33;;;;;22.04;70.16;100128.13;5077629;28;45400;-75
2023/09/12 05:22:47;;;;;;;;;7.33;6.33;;;;;21.97;70.58;100130.09;5077780;28;45482;-75
2023/09/12 05:25:13;;;;;;;;;7.00;6.00;;;;;21.98;70.61;100144.25;5063871;28;45497;-74
2023/09/12 05:27:38;;;;;;;;;5.67;5.67;;;;;21.90;70.56;100132.91;5055971;28;45465;-74
2023/09/12 05:30:05;;;;;;;;;8.67;6.33;;;;;21.94;70.74;100140.78;5063132;28;45380;-74
2023/09/12 05:32:31;;;;;;;;;8.33;8.00;;;;;21.93;70.79;100152.34;5067899;28;45505;-74
2023/09/12 05:34:56;;;;;;;;;14.33;12.67;;;;;21.85;70.62;100141.00;5057635;28;45405;-75
2023/09/12 05:37:22;;;;;;;;;6.33;6.33;;;;;21.86;71.31;100161.34;5073012;27;45414;-74
2023/09/12 05:39:47;;;;;;;;;7.33;6.00;;;;;21.78;71.28;100150.03;5057571;28;45524;-74
2023/09/12 05:42:14;;;;;;;;;8.33;7.33;;;;;21.76;70.96;100146.53;5039393;28;45423;-74
2023/09/12 05:44:42;;;;;;;;;6.33;6.33;;;;;21.79;71.25;100155.31;5053314;28;45564;-75
2023/09/12 05:47:08;;;;;;;;;10.00;8.00;;;;;21.79;70.75;100160.63;5059280;28;45849;-74
2023/09/12 05:49:34;;;;;;;;;12.33;7.67;;;;;21.84;70.75;100172.06;5044914;28;46645;-73
2023/09/12 05:51:59;;;;;;;;;8.00;7.00;;;;;21.87;70.51;100178.22;5059448;28;46309;-73
2023/09/12 05:54:25;;;;;;;;;7.67;6.67;;;;;21.88;70.98;100183.47;5077115;28;45476;-73
2023/09/12 05:56:53;;;;;;;;;7.00;6.33;;;;;21.88;70.67;100180.81;5059970;28;45483;-74
2023/09/12 05:59:18;;;;;;;;;7.67;6.67;;;;;21.92;70.51;100182.50;5058646;28;47889;-74
2023/09/12 06:01:45;;;;;;;;;8.33;7.00;;;;;22.00;69.97;100183.22;5060181;28;45485;-73
2023/09/12 06:04:10;;;;;;;;;8.00;7.00;;;;;21.99;69.97;100186.78;5039935;28;45456;-73
2023/09/12 06:06:36;;;;;;;;;7.33;6.33;;;;;22.03;70.13;100191.09;5073505;27;45534;-73
2023/09/12 06:09:03;;;;;;;;;9.67;7.33;;;;;22.02;70.27;100193.78;5081512;27;45803;-74
2023/09/12 06:11:29;;;;;;;;;11.00;9.00;;;;;21.98;70.32;100187.66;5084186;27;45504;-73
2023/09/12 06:13:54;;;;;;;;;14.33;11.67;;;;;22.03;70.42;100193.78;5071996;28;45503;-73
2023/09/12 06:16:20;;;;;;;;;21.33;17.33;;;;;22.04;70.50;100187.56;5076819;27;45339;-73
2023/09/12 06:18:48;;;;;;;;;11.33;10.33;;;;;22.01;70.18;100169.00;5053308;28;47703;-72
2023/09/12 06:21:14;;;;;;;;;12.33;11.00;;;;;22.12;69.77;100179.38;5067773;27;45519;-73
2023/09/12 06:23:40;;;;;;;;;15.67;13.00;;;;;22.18;69.94;100189.91;5080050;27;45425;-73
2023/09/12 06:26:05;;;;;;;;;14.00;11.67;;;;;22.24;69.99;100205.75;5048101;28;45576;-73
2023/09/12 06:28:31;;;;;;;;;10.33;9.00;;;;;22.32;69.68;100200.25;5051497;28;46569;-74
2023/09/12 06:30:58;;;;;;;;;8.67;8.00;;;;;22.35;69.40;100199.28;5066336;27;45471;-73
2023/09/12 06:33:28;;;;;;;;;8.00;5.67;;;;;22.38;69.21;100191.22;5067996;27;45312;-73
2023/09/12 06:35:54;;;;;;;;;9.67;6.33;;;;;22.50;68.64;100200.69;5081709;27;45604;-74
2023/09/12 06:38:21;;;;;;;;;10.33;9.00;;;;;22.53;68.64;100204.16;5066297;27;46236;-74
2023/09/12 06:40:47;;;;;;;;;12.00;9.67;;;;;22.67;68.58;100209.13;5083237;27;45462;-74
2023/09/12 06:43:13;;;;;;;;;9.00;8.33;;;;;22.83;68.40;100209.63;5044061;28;45453;-73
2023/09/12 06:45:43;;;;;;;;;8.00;7.00;;;;;22.99;67.58;100210.94;5071812;27;45580;-74
2023/09/12 06:48:09;;;;;;;;;6.33;6.33;;;;;23.11;67.32;100206.25;5083126;27;45421;-73
2023/09/12 06:50:38;;;;;;;;;6.00;6.00;;;;;23.80;66.29;100223.00;5066868;27;45785;-73
2023/09/12 06:53:06;;;;;;;;;7.00;5.67;;;;;25.82;59.98;100230.44;5077599;27;45238;-73
2023/09/12 06:55:32;;;;;;;;;6.00;6.00;;;;;25.79;59.20;100220.75;5052142;27;45638;-74
2023/09/12 06:58:01;;;;;;;;;5.33;4.67;;;;;25.44;60.13;100229.22;5074483;27;45354;-73
2023/09/12 07:00:27;;;;;;;;;6.00;5.33;;;;;25.08;60.78;100235.78;5062995;27;45515;-73
2023/09/12 07:02:53;;;;;;;;;7.33;6.67;;;;;24.94;61.86;100240.75;5075498;27;45840;-73
2023/09/12 07:05:20;;;;;;;;;8.00;8.00;;;;;24.90;61.71;100236.44;5082944;27;45594;-77
2023/09/12 07:07:46;;;;;;;;;6.33;5.67;;;;;24.89;62.38;100251.59;5075277;27;45460;-74
2023/09/12 07:10:12;;;;;;;;;5.67;5.00;;;;;25.32;61.35;100250.09;5053814;28;45456;-74
2023/09/12 07:12:37;;;;;;;;;5.00;5.00;;;;;25.60;60.74;100241.97;5049766;28;45476;-73
2023/09/12 07:15:03;;;;;;;;;6.00;5.67;;;;;25.62;59.67;100249.91;5065168;28;45755;-74
2023/09/12 07:17:29;;;;;;;;;4.67;4.00;;;;;25.91;58.70;100256.03;5065368;28;45741;-74
2023/09/12 07:19:55;;;;;;;;;4.67;4.00;;;;;25.81;59.34;100268.84;5078913;28;45498;-73
2023/09/12 07:22:21;;;;;;;;;5.33;4.67;;;;;25.92;59.35;100263.97;5076223;27;45497;-75
2023/09/12 07:24:47;;;;;;;;;6.67;6.00;;;;;26.08;58.36;100268.75;5063901;28;45528;-73
2023/09/12 07:27:12;;;;;;;;;6.00;6.00;;;;;26.07;58.75;100256.31;5062335;28;45355;-76
2023/09/12 07:29:38;;;;;;;;;5.33;5.33;;;;;27.14;56.52;100261.78;5068679;28;45676;-73
2023/09/12 07:32:04;;;;;;;;;6.00;5.00;;;;;27.76;54.83;100250.06;5078348;28;45502;-73
2023/09/12 07:34:29;;;;;;;;;8.00;6.00;;;;;27.55;55.51;100256.41;5076787;28;45568;-74
2023/09/12 07:36:55;;;;;;;;;5.00;4.00;;;;;27.30;55.66;100267.38;5057665;28;45532;-74
2023/09/12 07:39:21;;;;;;;;;3.33;3.33;;;;;26.90;56.54;100261.91;5065840;28;45379;-74
2023/09/12 07:41:47;;;;;;;;;6.67;6.33;;;;;26.60;57.31;100277.44;5077748;28;45437;-73
2023/09/12 07:44:15;;;;;;;;;6.33;5.00;;;;;26.39;58.07;100274.66;5054168;28;45390;-73
2023/09/12 07:46:41;;;;;;;;;5.67;5.00;;;;;26.27;58.47;100266.25;5071936;27;46146;-72
2023/09/12 07:49:09;;;;;;;;;5.00;5.00;;;;;26.32;58.20;100269.59;5076265;28;45594;-73
2023/09/12 07:51:35;;;;;;;;;5.33;5.33;;;;;26.80;57.19;100260.53;5077373;28;45367;-73
2023/09/12 07:54:01;;;;;;;;;5.00;5.00;;;;;27.17;56.86;100264.31;5067352;27;45593;-73
2023/09/12 07:56:27;;;;;;;;;4.33;3.00;;;;;27.97;55.01;100271.53;5065874;28;45336;-73
2023/09/12 07:58:53;;;;;;;;;5.67;4.00;;;;;29.83;51.62;100273.00;5067628;28;45325;-73
2023/09/12 08:01:18;;;;;;;;;5.33;5.00;;;;;31.48;47.60;100261.72;5041105;28;45593;-72
2023/09/12 08:03:44;;;;;;;;;4.00;3.33;;;;;31.13;47.79;100261.97;5067458;28;45644;-73
2023/09/12 08:06:10;;;;;;;;;3.00;2.00;;;;;31.01;46.93;100262.72;5060668;28;47631;-72
2023/09/12 08:08:35;;;;;;;;;3.67;3.00;;;;;30.81;47.95;100265.72;5077792;28;45370;-72
2023/09/12 08:11:01;;;;;;;;;7.67;2.33;;;;;31.31;45.79;100260.00;5059248;28;45371;-73
2023/09/12 08:13:28;;;;;;;;;3.67;3.00;;;;;32.12;45.42;100265.88;5065696;28;45633;-73
2023/09/12 08:15:55;;;;;;;;;8.00;7.33;;;;;32.27;43.18;100264.84;5076082;28;46142;-73
2023/09/12 08:18:20;;;;;;;;;4.00;3.33;;;;;32.27;43.41;100265.75;5058530;28;45534;-73
2023/09/12 08:20:46;;;;;;;;;3.67;3.33;;;;;31.59;44.20;100271.81;5062433;27;45501;-73
2023/09/12 08:23:12;;;;;;;;;3.67;3.67;;;;;30.98;45.55;100262.94;5070138;28;45568;-73
2023/09/12 08:25:39;;;;;;;;;3.00;3.00;;;;;30.40;47.15;100251.00;5066013;27;45462;-73
2023/09/12 08:28:04;;;;;;;;;2.33;2.00;;;;;30.28;47.61;100276.78;5039861;28;45494;-73
2023/09/12 08:30:30;;;;;;;;;6.00;4.00;;;;;29.90;48.77;100279.78;5040388;28;45367;-73
2023/09/12 08:32:56;;;;;;;;;4.33;4.00;;;;;29.73;48.09;100282.53;5073576;28;45560;-73
2023/09/12 08:35:21;;;;;;;;;3.00;3.00;;;;;29.44;48.92;100274.13;5066084;28;46031;-73
2023/09/12 08:37:47;;;;;;;;;3.00;3.00;;;;;29.28;50.04;100279.44;5052332;28;45350;-73
2023/09/12 08:40:14;;;;;;;;;3.00;2.00;;;;;29.34;50.04;100280.97;5059720;28;45456;-73
2023/09/12 08:42:42;;;;;;;;;3.33;3.00;;;;;29.57;49.57;100281.59;5062886;28;45239;-73
2023/09/12 08:45:13;;;;;;;;;4.00;4.00;;;;;29.58;49.61;100276.09;5042233;28;46485;-73
2023/09/12 08:47:41;;;;;;;;;3.00;3.00;;;;;29.83;49.95;100285.59;5042207;28;45535;-73
2023/09/12 08:50:10;;;;;;;;;3.00;3.00;;;;;29.87;49.40;100284.47;5061285;28;45616;-73
2023/09/12 08:52:36;;;;;;;;;3.33;3.33;;;;;29.80;49.82;100293.81;5070877;28;45809;-73
2023/09/12 08:55:03;;;;;;;;;4.00;3.00;;;;;29.57;49.31;100297.75;5049532;28;47862;-73
2023/09/12 08:57:32;;;;;;;;;2.00;2.00;;;;;29.11;49.78;100293.78;5062647;28;45435;-73
2023/09/12 09:00:04;;;;;;;;;9.67;9.00;;;;;28.91;50.80;100302.84;5051587;28;45672;-73
2023/09/12 09:02:30;;;;;;;;;5.00;3.00;;;;;28.89;50.95;100307.44;5070696;28;45484;-73
2023/09/12 09:04:58;;;;;;;;;4.00;4.00;;;;;28.80;50.75;100307.88;5038952;28;46829;-73
2023/09/12 09:07:24;;;;;;;;;4.33;4.33;;;;;28.50;51.41;100270.81;5057332;28;45430;-74
2023/09/12 09:09:53;;;;;;;;;7.33;6.67;;;;;28.61;51.61;100302.56;5039916;28;45397;-73
2023/09/12 09:12:19;;;;;;;;;5.67;5.67;;;;;28.56;51.83;100308.13;5058048;28;45293;-73
2023/09/12 09:14:45;;;;;;;;;11.33;10.67;;;;;28.50;52.58;100308.44;5057174;28;45314;-73
2023/09/12 09:17:12;;;;;;;;;3.33;3.33;;;;;28.45;52.60;100307.75;5072503;28;45418;-74
2023/09/12 09:19:42;;;;;;;;;5.33;4.00;;;;;28.52;51.21;100311.06;5073658;28;45675;-73
2023/09/12 09:22:08;;;;;;;;;3.67;3.00;;;;;28.51;51.55;100317.34;5066209;28;45572;-73
2023/09/12 09:24:34;;;;;;;;;2.00;2.00;;;;;28.56;51.59;100310.81;5076430;28;45481;-73
2023/09/12 09:27:00;;;;;;;;;3.00;2.33;;;;;28.66;51.57;100324.69;5055340;28;45560;-73
2023/09/12 09:29:33;;;;;;;;;6.00;6.00;;;;;28.85;51.30;100326.44;5071294;28;45382;-73
2023/09/12 09:32:05;;;;;;;;;2.00;2.00;;;;;28.91;50.81;100328.88;5073822;27;45312;-75
2023/09/12 09:34:31;;;;;;;;;3.00;3.00;;;;;28.99;51.09;100329.34;5057062;28;46940;-73
2023/09/12 09:36:58;;;;;;;;;2.00;2.00;;;;;29.11;50.80;100331.44;5059355;28;45328;-73
2023/09/12 09:39:26;;;;;;;;;3.00;2.00;;;;;29.04;50.40;100308.47;5056110;28;45389;-72
2023/09/12 09:41:54;;;;;;;;;2.00;1.00;;;;;29.11;49.97;100334.13;5068016;28;45561;-73
2023/09/12 09:44:30;;;;;;;;;3.00;2.67;;;;;28.88;50.39;100339.75;5076485;28;45576;-72
2023/09/12 09:47:02;;;;;;;;;7.00;6.67;;;;;28.67;50.46;100329.13;5071807;28;45794;-73
2023/09/12 09:49:30;;;;;;;;;5.00;4.67;;;;;28.48;50.62;100329.09;5068841;28;45497;-72
2023/09/12 09:51:59;;;;;;;;;3.00;3.00;;;;;28.45;51.43;100344.47;5063587;27;45375;-75
2023/09/12 09:54:25;;;;;;;;;3.00;3.00;;;;;28.29;51.90;100349.72;5072024;27;45604;-71
2023/09/12 09:56:56;;;;;;;;;5.00;5.00;;;;;28.08;52.65;100352.47;5060252;28;45256;-72
2023/09/12 09:59:24;;;;;;;;;4.00;4.00;;;;;27.87;52.71;100343.56;5073966;28;45399;-73
2023/09/12 10:01:55;;;;;;;;;3.00;3.00;;;;;27.77;52.72;100356.50;5074659;28;45434;-72
2023/09/12 10:04:22;;;;;;;;;3.00;3.00;;;;;27.68;53.23;100359.59;5073088;28;46272;-73
2023/09/12 10:06:49;;;;;;;;;2.00;2.00;;;;;27.60;53.67;100350.16;5068996;28;45450;-73
2023/09/12 10:09:16;;;;;;;;;4.00;3.33;;;;;27.50;54.45;100363.94;5056499;28;45371;-72
2023/09/12 10:11:50;;;;;;;;;3.00;3.00;;;;;27.30;55.10;100363.94;5058172;28;45720;-73
2023/09/12 10:14:19;;;;;;;;;2.00;2.00;;;;;27.14;55.20;100359.19;5039268;28;46335;-72
2023/09/12 10:16:47;;;;;;;;;2.00;2.00;;;;;27.24;55.04;100372.22;5056642;28;45565;-72
2023/09/12 10:19:20;;;;;;;;;2.67;2.00;;;;;27.33;54.75;100371.84;5072554;27;45516;-73
2023/09/12 10:22:20;;;;;;;;;2.67;2.67;;;;;27.43;54.95;100365.13;5066339;28;45512;-74
2023/09/12 10:24:46;;;;;;;;;3.67;2.67;;;;;27.45;54.33;100371.31;5056784;28;45642;-73
2023/09/12 10:27:14;;;;;;;;;2.33;2.00;;;;;27.46;55.28;100365.03;5056042;28;46545;-73
2023/09/12 10:29:40;;;;;;;;;2.00;2.00;;;;;27.44;55.37;100350.81;5075571;28;45509;-71
2023/09/12 10:32:05;;;;;;;;;3.00;3.00;;;;;27.51;55.35;100346.91;5055941;28;45699;-73
2023/09/12 10:34:32;;;;;;;;;3.00;3.00;;;;;27.52;54.83;100356.72;5074595;28;45939;-81
2023/09/12 10:37:04;;;;;;;;;2.00;2.00;;;;;27.53;53.72;100347.69;5044787;28;45430;-76
2023/09/12 10:39:32;;;;;;;;;0.67;0.00;;;;;27.56;55.05;100369.03;5062077;28;45288;-83
2023/09/12 10:42:13;;;;;;;;;2.67;2.67;;;;;27.45;54.20;100365.09;5071801;28;45691;-76
2023/09/12 10:44:40;;;;;;;;;2.33;2.33;;;;;27.54;54.74;100362.88;5074267;28;45454;-76
2023/09/12 10:47:08;;;;;;;;;4.00;3.00;;;;;27.66;54.66;100369.53;5068893;28;45520;-76
2023/09/12 10:49:34;;;;;;;;;2.00;2.00;;;;;27.77;53.87;100355.63;5072000;28;45395;-77
2023/09/12 10:52:04;;;;;;;;;2.00;2.00;;;;;28.22;54.02;100373.31;5064233;28;45253;-77
2023/09/12 10:54:42;;;;;;;;;2.00;2.00;;;;;28.65;52.44;100370.44;5064631;28;45438;-78
2023/09/12 10:57:13;;;;;;;;;2.00;2.00;;;;;28.90;52.58;100371.00;5072038;28;45333;-76
2023/09/12 11:00:17;;;;;;;;;2.00;2.00;;;;;29.22;50.75;100373.06;5080555;27;45391;-75
2023/09/12 11:02:43;;;;;;;;;3.00;3.00;;;;;29.73;51.63;100371.38;4997614;28;45589;-76
2023/09/12 11:05:27;;;;;;;;;2.00;2.00;;;;;30.33;50.73;100374.44;4991352;28;45596;-76
2023/09/12 11:07:58;;;;;;;;;3.33;2.00;;;;;30.38;49.99;100370.59;5044208;28;45922;-78
2023/09/12 11:10:25;;;;;;;;;2.00;2.00;;;;;30.24;49.13;100374.91;5075127;28;45814;-76
2023/09/12 11:13:03;;;;;;;;;2.00;1.00;;;;;29.42;49.61;100375.59;5062787;28;45327;-75
2023/09/12 11:15:29;;;;;;;;;1.00;0.67;;;;;29.37;50.56;100376.78;5064456;28;45376;-77
2023/09/12 11:18:05;;;;;;;;;1.00;1.00;;;;;29.07;50.85;100378.25;5065624;28;45533;-76
2023/09/12 11:20:59;;;;;;;;;0.33;0.33;;;;;29.02;50.84;100376.72;5062886;28;45880;-75
2023/09/12 11:23:25;;;;;;;;;1.00;1.00;;;;;28.88;51.24;100370.19;5072325;28;45375;-76
2023/09/12 11:26:13;;;;;;;;;0.33;0.33;;;;;28.49;51.74;100367.56;5055559;28;45539;-75
2023/09/12 11:28:39;;;;;;;;;1.00;1.00;;;;;28.11;52.39;100371.13;5055544;28;46663;-75